Monday, October 16, 2017, 6:01 PM EDT
Back to Local

KELZ, Wellsville Municipal Airport

Location: Wellsville, NY, United States Lat: 42.1
Local Time: 6:01 PM EDT (22:01 GMT) Lon: -78
Time Zone: US/Eastern Elev: 2122 ft

Show me the last for .
Show Decoded

2017-10-16 16:56 METAR KELZ 162056Z AUTO 31014G21KT 10SM FEW043 08/M02 A3018 RMK AO2 SLP230
                 T00831022 53009 =
2017-10-16 15:56 METAR KELZ 161956Z AUTO 32013G21KT 10SM SCT044 09/M02 A3017 RMK AO2 SLP225
                 T00891017 =
2017-10-16 14:56 METAR KELZ 161856Z AUTO 31016G21KT 10SM CLR 08/M02 A3015 RMK AO2 SLP220
                 T00781017 =
2017-10-16 13:56 METAR KELZ 161756Z AUTO 34015G20KT 10SM BKN042 BKN049 08/M01 A3015 RMK AO2 PK
                 WND 29027/1739 SLP218 T00831011 10111 20056 55001 =
2017-10-16 12:56 METAR KELZ 161656Z AUTO 34013G26KT 10SM BKN039 OVC049 10/00 A3015 RMK AO2 PK WND
                 33026/1650 SLP216 T01000000 =
2017-10-16 11:56 METAR KELZ 161556Z AUTO 30017G23KT 10SM BKN039 09/00 A3015 RMK AO2 SLP216
                 T00940000 =
2017-10-16 10:56 METAR KELZ 161456Z AUTO 33009G18KT 10SM SCT025 BKN032 08/01 A3015 RMK AO2 SLP216
                 T00780011 51007 =
2017-10-16 10:52 METAR KELZ 161452Z AUTO 32011G18KT 10SM SCT025 BKN032 08/02 A3015 RMK AO2 =
2017-10-16 09:56 METAR KELZ 161356Z AUTO 34011KT 10SM BKN020 OVC025 07/02 A3014 RMK AO2 SLP211
                 T00670017 =
2017-10-16 08:56 METAR KELZ 161256Z AUTO 34005KT 10SM BKN016 OVC022 06/02 A3013 RMK AO2 SLP208
                 T00610022 =
2017-10-16 08:39 METAR KELZ 161239Z AUTO 35006KT 10SM OVC016 06/02 A3012 RMK AO2 T00560017 =
2017-10-16 07:56 METAR KELZ 161156Z AUTO 33007KT 10SM OVC014 06/02 A3010 RMK AO2 SLP198 60001
                 70018 T00560017 10083 20056 51007 =
2017-10-16 07:53 METAR KELZ 161153Z AUTO 33011KT 10SM OVC014 06/02 A3010 RMK AO2 =
2017-10-16 07:19 METAR KELZ 161119Z AUTO 33008KT 10SM BKN017 OVC031 06/02 A3010 RMK AO2 T00560017
                 =
2017-10-16 07:09 METAR KELZ 161109Z AUTO 33009KT 10SM FEW017 SCT024 OVC031 06/02 A3009 RMK AO2
                 T00560017 =
2017-10-16 06:56 METAR KELZ 161056Z AUTO 33007KT 10SM BKN024 OVC031 06/01 A3009 RMK AO2 SLP190
                 T00560011 =
2017-10-16 05:56 METAR KELZ 160956Z AUTO 33009KT 10SM OVC018 06/02 A3008 RMK AO2 SLP185 T00560017
                 =
2017-10-16 04:56 METAR KELZ 160856Z AUTO 33012KT 10SM SCT013 BKN021 OVC028 06/03 A3005 RMK AO2
                 RAE03 SLP173 P0000 60001 T00610033 53009 =
2017-10-16 03:56 METAR KELZ 160756Z AUTO 33010KT 7SM -RA FEW009 BKN016 OVC025 07/04 A3003 RMK AO2
                 SLP166 P0001 T00670044 =
2017-10-16 03:54 METAR KELZ 160754Z AUTO 33009KT 6SM -RA BR FEW009 BKN016 OVC025 07/04 A3003 RMK
                 AO2 P0001 =
2017-10-16 03:18 METAR KELZ 160718Z AUTO 32011KT 6SM -RA FEW009 BKN014 OVC025 07/04 A3002 RMK AO2
                 P0000 T00720044 =
2017-10-16 02:56 METAR KELZ 160656Z AUTO 32009G18KT 8SM -RA BKN016 OVC024 07/04 A3002 RMK AO2
                 RAB30 SLP161 P0000 T00720044 =
2017-10-16 01:56 METAR KELZ 160556Z AUTO 31010G22KT 10SM OVC020 08/03 A3000 RMK AO2 SLP156 60000
                 T00830033 10156 20083 51027 =
2017-10-16 00:56 METAR KELZ 160456Z AUTO 32016G25KT 10SM OVC018 09/04 A2998 RMK AO2 PK WND
                 31027/0438 SLP147 T00890044 402500089 =
2017-10-16 00:25 METAR KELZ 160425Z AUTO 33015G24KT 10SM OVC016 10/06 A2997 RMK AO2 T01000056 =
2017-10-16 00:10 METAR KELZ 160410Z AUTO 33014G21KT 10SM OVC014 10/06 A2996 RMK AO2 T01000061 =
2017-10-15 23:56 METAR KELZ 160356Z AUTO 32013G22KT 10SM OVC016 11/07 A2995 RMK AO2 PK WND
                 31028/0309 SLP137 T01060067 =
2017-10-15 22:56 METAR KELZ 160256Z AUTO 31017G25KT 10SM BKN020 OVC046 12/08 A2992 RMK AO2 PK WND
                 32029/0230 RAB33E43 SLP124 P0000 60000 T01170078 53024 =
2017-10-15 21:56 METAR KELZ 160156Z AUTO 29011KT 10SM BKN023 BKN030 OVC042 14/09 A2988 RMK AO2
                 RAE0058 SLP112 P0000 T01390094 =
2017-10-15 20:56 METAR KELZ 160056Z AUTO 28016G25KT 10SM -RA OVC100 14/10 A2986 RMK AO2 PK WND
                 29042/0008 RAE02B33 SLP105 P0000 T01390100 =
2017-10-15 20:31 METAR KELZ 160031Z AUTO 29018G24KT 10SM FEW022 BKN030 OVC110 14/10 A2985 RMK AO2
                 PK WND 29042/0008 RAE02 P0000 T01440100 =
2017-10-15 20:04 METAR KELZ 160004Z AUTO 29018G31KT 10SM SCT014 OVC024 15/12 A2984 RMK AO2 PK WND
                 30030/0004 RAE02 P0000 T01500122 =
2017-10-15 19:56 METAR KELZ 152356Z AUTO 30024G31KT 8SM -RA BKN014 BKN020 OVC025 15/13 A2984 RMK
                 AO2 PK WND 31031/2356 RAB2258 SLP100 P0001 60017 T01500128 10250 20150 53034 =
2017-10-15 19:32 METAR KELZ 152332Z AUTO 28018G26KT 10SM -RA BKN014 OVC025 16/13 A2983 RMK AO2 PK
                 WND 29026/2332 RAB2258 P0001 T01610133 =
2017-10-15 19:12 METAR KELZ 152312Z AUTO 27012KT 9SM -RA SCT016 BKN021 OVC032 17/14 A2982 RMK AO2
                 RAB2258 P0000 T01670139 =
2017-10-15 19:05 METAR KELZ 152305Z AUTO 27014G25KT 10SM -RA FEW016 BKN033 OVC055 17/14 A2981 RMK
                 AO2 RAB2258 P0000 T01670139 =
2017-10-15 18:56 METAR KELZ 152256Z AUTO 28016G26KT 10SM FEW016 BKN025 OVC050 17/14 A2980 RMK AO2
                 PK WND 30037/2213 WSHFT 2204 RAB09E50 SLP084 P0016 T01720139 =
2017-10-15 18:27 METAR KELZ 152227Z AUTO 28022G31KT 3SM -RA FEW017 BKN034 OVC046 19/16 A2978 RMK
                 AO2 PK WND 30037/2213 WSHFT 2204 RAB09 P0015 T01890156 =
2017-10-15 18:24 METAR KELZ 152224Z AUTO 27018G28KT 1 3/4SM -RA FEW020 BKN032 OVC055 19/16 A2978
                 RMK AO2 PK WND 30037/2213 WSHFT 2204 RAB09 P0015 T01890161 =
2017-10-15 18:14 METAR KELZ 152214Z AUTO 29026G37KT 1 1/2SM -RA FEW012 BKN043 OVC055 21/16 A2977
                 RMK AO2 PK WND 30037/2213 RAB09 PRESRR P0008 T02060156 =

Support USWX by starting your Amazon purchase here.